createdAt,value
2019-02-22T00:08:11.104Z,8.65
2019-02-22T00:10:41.037Z,8.50
2019-02-22T00:13:10.930Z,8.56
2019-02-22T00:15:41.107Z,8.51
2019-02-22T00:18:11.091Z,8.58
2019-02-22T00:24:32.882Z,8.54
2019-02-22T00:27:02.794Z,8.32
2019-02-22T00:29:32.754Z,8.20
2019-02-22T00:35:53.831Z,8.04
2019-02-22T00:38:23.733Z,8.20
2019-02-22T00:53:37.869Z,8.45
2019-02-22T00:56:08.006Z,8.33
2019-02-22T00:58:37.896Z,8.29
2019-02-22T01:01:07.851Z,8.31
2019-02-22T01:03:37.837Z,8.23
2019-02-22T01:06:07.728Z,8.09
2019-02-22T01:08:37.617Z,7.83
2019-02-22T01:11:08.013Z,7.53
2019-02-22T01:13:37.960Z,7.35
2019-02-22T01:16:07.844Z,7.47
2019-02-22T01:18:37.791Z,7.77
2019-02-22T01:21:07.684Z,7.89
2019-02-22T01:23:37.578Z,7.98
2019-02-22T01:37:28.712Z,8.34
2019-02-22T02:06:16.991Z,8.65
2019-02-22T02:08:46.926Z,8.68
2019-02-22T02:11:16.842Z,8.76
2019-02-22T02:13:46.764Z,8.76
2019-02-22T02:16:16.724Z,8.89
2019-02-22T02:18:46.627Z,8.94
2019-02-22T02:21:16.609Z,8.92
2019-02-22T02:23:46.510Z,8.88
2019-02-22T02:26:16.415Z,8.91
2019-02-22T02:28:46.333Z,8.85
2019-02-22T02:35:00.979Z,8.93
2019-02-22T02:37:31.202Z,8.94
2019-02-22T02:40:01.150Z,8.93
2019-02-22T02:42:31.139Z,9.01
2019-02-22T02:45:01.065Z,9.00
2019-02-22T02:47:31.228Z,9.04
2019-02-22T02:50:01.122Z,9.10
2019-02-22T02:52:31.002Z,9.03
2019-02-22T02:55:00.963Z,9.11
2019-02-22T02:57:30.915Z,9.01
2019-02-22T03:00:00.839Z,9.06
2019-02-22T03:02:31.631Z,9.07
2019-02-22T03:05:01.518Z,9.03
2019-02-22T03:07:45.147Z,8.89
2019-02-22T03:10:15.119Z,8.64
2019-02-22T03:12:45.026Z,8.82
2019-02-22T03:19:13.428Z,8.58
2019-02-22T03:51:20.979Z,9.23
2019-02-22T04:08:47.336Z,9.28
2019-02-22T04:11:17.289Z,9.22
2019-02-22T04:13:47.261Z,9.29
2019-02-22T04:16:17.153Z,9.22
2019-02-22T04:22:37.952Z,9.20
2019-02-22T04:25:07.963Z,9.17
2019-02-22T05:14:20.882Z,8.55
2019-02-22T05:16:50.791Z,8.40
2019-02-22T05:19:20.699Z,8.28
2019-02-22T05:21:50.640Z,8.21
2019-02-22T05:24:20.551Z,8.09
2019-02-22T05:26:50.464Z,8.00
2019-02-22T05:29:20.365Z,7.98
2019-02-22T05:31:50.510Z,7.96
2019-02-22T05:34:20.424Z,7.94
2019-02-22T05:40:40.936Z,7.89
2019-02-22T05:43:10.867Z,7.85
2019-02-22T05:45:40.767Z,7.94
2019-02-22T05:48:10.872Z,7.83
2019-02-22T05:50:40.804Z,7.87
2019-02-22T05:53:10.746Z,7.84
2019-02-22T05:55:40.645Z,7.84
2019-02-22T05:58:10.545Z,7.89
2019-02-22T06:00:40.477Z,7.80
2019-02-22T06:03:10.364Z,7.77
2019-02-22T06:26:34.673Z,7.71
2019-02-22T06:29:04.817Z,7.70
2019-02-22T06:38:17.396Z,7.74
2019-02-22T06:40:48.267Z,7.74
2019-02-22T06:50:47.169Z,7.89
2019-02-22T06:53:17.074Z,7.82
2019-02-22T07:02:16.735Z,7.89
2019-02-22T07:19:42.051Z,7.75
2019-02-22T07:22:12.285Z,7.75
2019-02-22T07:24:42.194Z,7.75
2019-02-22T07:27:12.361Z,7.73
2019-02-22T07:29:42.250Z,7.72
2019-02-22T07:32:12.423Z,7.74
2019-02-22T07:34:42.322Z,7.82
2019-02-22T07:37:12.297Z,7.80
2019-02-22T07:39:42.220Z,7.87
2019-02-22T07:42:12.408Z,7.82
2019-02-22T07:44:42.327Z,7.84
2019-02-22T07:47:12.321Z,7.81
2019-02-22T07:49:42.242Z,7.82
2019-02-22T07:52:12.232Z,7.90
2019-02-22T07:54:42.851Z,7.99
2019-02-22T07:57:12.948Z,7.93
2019-02-22T07:59:43.089Z,7.93
2019-02-22T08:02:13.066Z,7.93
2019-02-22T08:04:42.970Z,7.93
2019-02-22T08:07:12.883Z,7.99
2019-02-22T08:09:42.784Z,8.05
2019-02-22T08:12:12.690Z,8.07
2019-02-22T08:41:19.608Z,8.80
2019-02-22T09:10:06.471Z,11.01
2019-02-22T09:12:37.226Z,11.37
2019-02-22T09:22:23.188Z,10.29
2019-02-22T09:24:51.954Z,10.33
2019-02-22T09:34:41.791Z,11.21
2019-02-22T09:37:11.713Z,11.43
2019-02-22T09:39:41.589Z,11.17
2019-02-22T09:42:11.505Z,11.03
2019-02-22T09:44:41.434Z,10.97
2019-02-22T09:47:11.369Z,10.73
2019-02-22T09:49:41.391Z,10.98
2019-02-22T09:52:11.317Z,10.87
2019-02-22T09:54:41.310Z,10.70
2019-02-22T09:57:11.323Z,10.63
2019-02-22T09:59:41.722Z,10.82
2019-02-22T10:02:11.637Z,11.41
2019-02-22T10:04:41.573Z,11.27
2019-02-22T10:11:01.935Z,12.13
2019-02-22T10:13:31.842Z,13.16
2019-02-22T10:16:01.991Z,13.60
2019-02-22T10:22:22.440Z,12.19
2019-02-22T10:24:52.384Z,11.97
2019-02-22T10:27:22.353Z,12.18
2019-02-22T10:29:52.271Z,12.16
2019-02-22T10:32:22.198Z,11.81
2019-02-22T10:38:42.961Z,12.21
2019-02-22T10:41:12.855Z,12.29
2019-02-22T10:47:41.129Z,11.78
2019-02-22T10:50:11.682Z,10.81
2019-02-22T10:52:41.660Z,10.84
2019-02-22T10:55:12.408Z,10.75
2019-02-22T10:57:42.308Z,10.70
2019-02-22T11:00:13.039Z,10.80
2019-02-22T11:02:43.007Z,10.86
2019-02-22T11:16:42.789Z,12.16
2019-02-22T11:19:12.797Z,12.53
2019-02-22T11:29:14.037Z,12.48
2019-02-22T11:31:44.044Z,12.28
2019-02-22T11:41:52.477Z,11.82
2019-02-22T11:44:22.386Z,12.15
2019-02-22T11:46:52.293Z,12.01
2019-02-22T11:52:36.812Z,12.20
2019-02-22T11:55:07.848Z,12.18
2019-02-22T11:57:38.111Z,12.64
2019-02-22T12:00:11.296Z,12.95
2019-02-22T12:02:41.317Z,12.65
2019-02-22T12:05:11.484Z,12.78
2019-02-22T12:07:41.374Z,13.56
2019-02-22T12:10:11.428Z,13.77
2019-02-22T12:12:41.394Z,14.76
2019-02-22T12:15:11.558Z,15.37
2019-02-22T12:17:41.709Z,14.51
2019-02-22T12:20:11.689Z,15.08
2019-02-22T12:22:41.567Z,14.68
2019-02-22T12:25:11.572Z,14.30
2019-02-22T12:27:42.080Z,13.91
2019-02-22T12:30:13.506Z,13.86
2019-02-22T12:32:43.425Z,13.86
2019-02-22T12:35:13.479Z,13.96
2019-02-22T12:37:43.379Z,14.04
2019-02-22T12:40:13.686Z,13.92
2019-02-22T12:42:43.648Z,13.60
2019-02-22T12:45:13.626Z,13.70
2019-02-22T12:47:43.504Z,13.59
2019-02-22T12:50:13.845Z,13.23
2019-02-22T12:52:43.740Z,12.81
2019-02-22T12:55:13.956Z,12.45
2019-02-22T12:57:43.860Z,12.10
2019-02-22T13:00:14.257Z,12.09
2019-02-22T13:02:44.223Z,11.87
2019-02-22T13:05:16.006Z,11.74
2019-02-22T13:07:45.976Z,11.62
2019-02-22T13:10:16.024Z,11.65
2019-02-22T13:16:37.201Z,11.81
2019-02-22T13:19:07.095Z,12.61
2019-02-22T13:21:37.026Z,13.04
2019-02-22T13:24:06.938Z,13.21
2019-02-22T13:26:36.832Z,13.38
2019-02-22T13:29:07.067Z,13.51
2019-02-22T13:31:37.029Z,13.64
2019-02-22T13:34:07.067Z,13.49
2019-02-22T13:40:22.261Z,12.71
2019-02-22T13:43:11.536Z,13.29
2019-02-22T14:03:00.607Z,14.02
2019-02-22T14:27:19.480Z,12.13
2019-02-22T14:29:49.405Z,12.24
2019-02-22T14:32:19.318Z,12.39
2019-02-22T14:34:49.255Z,12.49
2019-02-22T14:37:19.499Z,12.79
2019-02-22T14:40:00.120Z,12.94
2019-02-22T14:42:21.259Z,13.15
2019-02-22T14:44:51.579Z,13.57
2019-02-22T14:47:21.549Z,14.00
2019-02-22T14:49:51.968Z,14.16
2019-02-22T14:52:21.855Z,13.96
2019-02-22T14:54:51.758Z,14.33
2019-02-22T14:57:21.730Z,14.50
2019-02-22T14:59:51.677Z,14.26
2019-02-22T15:02:22.325Z,13.99
2019-02-22T15:04:52.336Z,13.92
2019-02-22T15:07:22.300Z,13.51
2019-02-22T15:09:52.212Z,13.25
2019-02-22T15:12:22.954Z,13.15
2019-02-22T15:14:52.904Z,12.93
2019-02-22T15:21:07.415Z,12.80
2019-02-22T15:23:38.767Z,12.44
2019-02-22T15:26:08.789Z,12.44
2019-02-22T15:28:38.945Z,12.35
2019-02-22T15:31:09.022Z,12.10
2019-02-22T15:33:38.964Z,11.99
2019-02-22T15:40:00.303Z,11.82
2019-02-22T15:42:30.705Z,11.93
2019-02-22T15:52:20.873Z,12.07
2019-02-22T15:54:50.734Z,12.08
2019-02-22T16:04:46.942Z,11.61
2019-02-22T16:07:16.988Z,11.58
2019-02-22T16:09:46.925Z,11.60
2019-02-22T16:12:17.245Z,11.54
2019-02-22T16:14:47.514Z,11.38
2019-02-22T16:21:08.302Z,11.13
2019-02-22T16:45:10.474Z,9.92
2019-02-22T16:47:40.819Z,9.56
2019-02-22T16:50:12.170Z,9.33
2019-02-22T16:56:26.997Z,9.12
2019-02-22T17:06:28.109Z,8.69
2019-02-22T17:08:58.048Z,8.54
2019-02-22T17:11:27.972Z,8.35
2019-02-22T17:17:43.160Z,7.89
2019-02-22T17:20:13.302Z,7.58
2019-02-22T17:22:43.350Z,7.49
2019-02-22T17:25:15.257Z,7.41
2019-02-22T17:27:45.997Z,7.20
2019-02-22T17:30:16.061Z,7.03
2019-02-22T17:36:36.925Z,6.76
2019-02-22T17:39:08.891Z,6.68
2019-02-22T17:41:38.860Z,6.57
2019-02-22T17:47:53.602Z,6.47
2019-02-22T17:50:23.663Z,7.21
2019-02-22T17:52:54.154Z,7.37
2019-02-22T17:59:14.791Z,7.26
2019-02-22T18:18:35.772Z,7.30
2019-02-22T18:28:08.137Z,7.49
2019-02-22T18:37:57.543Z,7.02
2019-02-22T18:40:27.682Z,7.14
2019-02-22T18:42:57.633Z,7.28
2019-02-22T18:45:28.219Z,7.35
2019-02-22T18:47:58.192Z,7.01
2019-02-22T18:50:28.083Z,6.98
2019-02-22T18:52:57.992Z,7.22
2019-02-22T18:55:27.888Z,7.21
2019-02-22T19:01:49.410Z,6.93
2019-02-22T19:11:32.631Z,6.24
2019-02-22T19:14:02.528Z,6.70
2019-02-22T19:16:32.632Z,7.05
2019-02-22T19:22:54.260Z,7.20
2019-02-22T19:25:24.397Z,6.60
2019-02-22T19:27:55.017Z,6.33
2019-02-22T19:30:25.018Z,6.13
2019-02-22T19:32:54.973Z,5.94
2019-02-22T19:46:52.003Z,5.79
2019-02-22T19:56:40.598Z,6.29
2019-02-22T19:59:10.499Z,6.10
2019-02-22T20:01:40.412Z,5.89
2019-02-22T21:06:52.855Z,4.50
2019-02-22T21:09:23.361Z,4.93
2019-02-22T21:11:53.296Z,4.87
2019-02-22T21:25:51.452Z,5.10
2019-02-22T21:28:21.455Z,5.18
2019-02-22T21:30:51.413Z,5.05
2019-02-22T21:33:21.312Z,5.44
2019-02-22T21:35:51.229Z,5.40
2019-02-22T21:38:21.184Z,5.11
2019-02-22T21:40:51.084Z,4.91
2019-02-22T21:43:21.074Z,4.76
2019-02-22T21:45:51.041Z,4.93
2019-02-22T23:43:08.091Z,3.29
2019-02-22T23:52:57.903Z,3.29
2019-02-22T23:55:27.883Z,3.14
